createdAt,value
2022-10-25T00:10:24.834Z,100200.66
2022-10-25T00:13:46.205Z,100200.70
2022-10-25T00:20:37.556Z,100200.48
2022-10-25T00:38:39.625Z,100206.91
2022-10-25T00:42:13.438Z,100210.70
2022-10-25T00:45:43.165Z,100209.55
2022-10-25T00:59:29.738Z,100210.67
2022-10-25T01:17:18.366Z,100200.36
2022-10-25T01:51:36.113Z,100192.77
2022-10-25T01:54:57.226Z,100201.31
2022-10-25T02:02:45.147Z,100195.17
2022-10-25T02:06:23.891Z,100189.91
2022-10-25T02:20:22.156Z,100191.16
2022-10-25T02:24:07.315Z,100190.88
2022-10-25T02:27:41.449Z,100194.85
2022-10-25T02:38:30.774Z,100184.89
2022-10-25T02:42:36.660Z,100181.85
2022-10-25T02:51:35.320Z,100183.59
2022-10-25T02:53:47.338Z,100184.00
2022-10-25T02:57:28.934Z,100188.40
2022-10-25T03:07:57.566Z,100194.73
2022-10-25T03:19:33.274Z,100198.39
2022-10-25T03:23:36.729Z,100195.33
2022-10-25T03:28:00.906Z,100191.34
2022-10-25T03:48:43.180Z,100183.87
2022-10-25T03:55:30.435Z,100185.49
2022-10-25T04:00:09.211Z,100186.44
2022-10-25T04:12:02.559Z,100197.24
2022-10-25T04:14:37.680Z,100193.69
2022-10-25T04:17:46.597Z,100195.34
2022-10-25T05:59:10.075Z,100250.92
2022-10-25T06:02:39.399Z,100257.40
2022-10-25T06:06:35.257Z,100263.91
2022-10-25T06:09:54.201Z,100263.95
2022-10-25T06:12:33.908Z,100265.91
2022-10-25T06:23:47.805Z,100265.17
2022-10-25T06:27:09.824Z,100268.13
2022-10-25T06:30:38.531Z,100272.35
2022-10-25T06:34:28.096Z,100276.23
2022-10-25T06:37:59.838Z,100280.40
2022-10-25T06:42:26.638Z,100281.86
2022-10-25T06:44:59.465Z,100288.95
2022-10-25T06:48:19.828Z,100286.52
2022-10-25T06:51:50.791Z,100285.13
2022-10-25T06:58:25.442Z,100281.29
2022-10-25T07:01:35.863Z,100287.21
2022-10-25T07:05:09.842Z,100289.00
2022-10-25T07:08:09.763Z,100285.30
2022-10-25T07:11:22.741Z,100284.14
2022-10-25T07:14:06.736Z,100284.91
2022-10-25T07:16:56.121Z,100290.94
2022-10-25T07:23:34.844Z,100295.14
2022-10-25T07:26:55.939Z,100299.05
2022-10-25T07:36:15.695Z,100302.63
2022-10-25T07:39:08.592Z,100304.58
2022-10-25T07:45:44.764Z,100307.83
2022-10-25T07:48:30.609Z,100307.27
2022-10-25T07:51:51.494Z,100306.37
2022-10-25T07:55:16.813Z,100309.44
2022-10-25T07:58:39.720Z,100314.84
2022-10-25T08:02:10.122Z,100316.61
2022-10-25T08:05:05.684Z,100317.93
2022-10-25T08:08:22.766Z,100320.73
2022-10-25T08:26:46.881Z,100317.31
2022-10-25T08:29:49.458Z,100319.21
2022-10-25T08:32:32.822Z,100322.71
2022-10-25T08:38:35.889Z,100326.99
2022-10-25T08:41:58.434Z,100329.50
2022-10-25T08:45:02.352Z,100332.54
2022-10-25T08:48:34.420Z,100340.09
2022-10-25T08:51:35.413Z,100336.63
2022-10-25T08:58:01.420Z,100331.08
2022-10-25T09:01:07.272Z,100333.00
2022-10-25T09:08:21.617Z,100340.44
2022-10-25T09:11:23.623Z,100339.53
2022-10-25T09:14:50.450Z,100338.48
2022-10-25T09:19:14.861Z,100342.67
2022-10-25T09:26:03.038Z,100353.41
2022-10-25T09:35:03.745Z,100359.66
2022-10-25T09:38:26.443Z,100364.49
2022-10-25T09:41:35.315Z,100363.53
2022-10-25T09:45:41.967Z,100367.27
2022-10-25T09:59:48.217Z,100361.09
2022-10-25T10:03:34.596Z,100364.20
2022-10-25T10:19:30.526Z,100362.78
2022-10-25T10:28:33.074Z,100356.67
2022-10-25T10:31:06.439Z,100356.14
2022-10-25T10:33:41.681Z,100358.59
2022-10-25T10:36:29.200Z,100359.65
2022-10-25T10:39:22.037Z,100364.41
2022-10-25T10:42:36.913Z,100365.35
2022-10-25T10:45:07.907Z,100366.25
2022-10-25T10:47:52.365Z,100372.42
2022-10-25T10:50:36.526Z,100373.40
2022-10-25T10:53:29.780Z,100371.17
2022-10-25T10:56:29.660Z,100367.15
2022-10-25T10:59:03.242Z,100367.98
2022-10-25T11:01:35.880Z,100367.64
2022-10-25T11:04:08.431Z,100370.13
2022-10-25T11:07:14.772Z,100372.89
2022-10-25T11:09:48.973Z,100373.81
2022-10-25T11:12:19.038Z,100376.27
2022-10-25T11:15:05.338Z,100380.39
2022-10-25T11:17:41.030Z,100382.95
2022-10-25T11:20:48.115Z,100384.40
2022-10-25T11:23:36.692Z,100383.63
2022-10-25T11:26:34.596Z,100378.76
2022-10-25T11:29:34.371Z,100382.75
2022-10-25T11:33:16.410Z,100381.70
2022-10-25T11:41:02.729Z,100380.96
2022-10-25T11:44:14.545Z,100388.64
2022-10-25T11:47:30.246Z,100388.85
2022-10-25T11:50:46.541Z,100390.30
2022-10-25T11:53:43.673Z,100390.25
2022-10-25T11:56:44.429Z,100390.66
2022-10-25T12:00:10.606Z,100393.45
2022-10-25T12:03:34.383Z,100390.91
2022-10-25T12:06:46.157Z,100390.59
2022-10-25T12:09:53.830Z,100394.35
2022-10-25T12:12:43.194Z,100393.77
2022-10-25T12:15:45.740Z,100393.00
2022-10-25T12:18:46.417Z,100395.28
2022-10-25T12:21:32.744Z,100394.32
2022-10-25T12:24:18.798Z,100393.98
2022-10-25T12:27:05.653Z,100391.62
2022-10-25T12:29:55.607Z,100396.29
2022-10-25T12:33:06.399Z,100396.80
2022-10-25T12:35:52.629Z,100394.09
2022-10-25T12:38:41.991Z,100392.64
2022-10-25T12:41:44.752Z,100389.73
2022-10-25T12:44:40.094Z,100385.68
2022-10-25T12:48:23.963Z,100386.67
2022-10-25T12:51:39.495Z,100389.52
2022-10-25T12:55:36.814Z,100388.00
2022-10-25T12:58:43.913Z,100393.79
2022-10-25T13:02:24.307Z,100392.77
2022-10-25T13:05:33.758Z,100392.65
2022-10-25T13:08:10.249Z,100390.61
2022-10-25T13:11:04.893Z,100395.64
2022-10-25T13:13:56.020Z,100394.69
2022-10-25T13:16:34.654Z,100395.37
2022-10-25T13:21:55.856Z,100396.98
2022-10-25T13:27:19.164Z,100397.25
2022-10-25T13:30:14.864Z,100397.11
2022-10-25T13:33:18.611Z,100396.18
2022-10-25T13:36:11.443Z,100396.34
2022-10-25T13:39:03.012Z,100399.04
2022-10-25T13:41:48.767Z,100400.20
2022-10-25T13:44:26.971Z,100396.88
2022-10-25T13:47:17.510Z,100396.27
2022-10-25T13:49:52.879Z,100396.00
2022-10-25T13:52:38.005Z,100396.09
2022-10-25T13:55:19.075Z,100400.34
2022-10-25T13:58:01.621Z,100403.18
2022-10-25T14:00:57.775Z,100409.98
2022-10-25T14:03:51.972Z,100413.42
2022-10-25T14:06:27.755Z,100414.29
2022-10-25T14:09:44.587Z,100414.86
2022-10-25T14:12:20.178Z,100415.27
2022-10-25T14:15:02.993Z,100419.61
2022-10-25T14:17:46.794Z,100419.32
2022-10-25T14:20:33.144Z,100423.11
2022-10-25T14:23:14.552Z,100425.21
2022-10-25T14:26:01.129Z,100428.43
2022-10-25T14:28:40.149Z,100427.34
2022-10-25T14:31:21.539Z,100426.27
2022-10-25T14:34:05.869Z,100423.40
2022-10-25T14:36:42.201Z,100423.05
2022-10-25T14:39:25.412Z,100424.38
2022-10-25T14:42:38.488Z,100430.27
2022-10-25T14:45:50.224Z,100433.14
2022-10-25T14:48:36.791Z,100435.70
2022-10-25T14:51:25.605Z,100438.24
2022-10-25T14:54:45.003Z,100433.50
2022-10-25T14:58:03.962Z,100438.17
2022-10-25T15:01:26.591Z,100441.26
2022-10-25T15:04:06.238Z,100445.52
2022-10-25T15:06:47.412Z,100449.73
2022-10-25T15:10:00.734Z,100450.73
2022-10-25T15:12:48.227Z,100446.14
2022-10-25T15:15:47.099Z,100444.07
2022-10-25T15:18:45.955Z,100444.59
2022-10-25T15:22:31.020Z,100444.74
2022-10-25T15:25:04.441Z,100450.58
2022-10-25T15:28:09.067Z,100455.06
2022-10-25T15:30:48.588Z,100452.70
2022-10-25T15:33:48.683Z,100450.59
2022-10-25T15:36:31.316Z,100449.73
2022-10-25T15:42:39.005Z,100449.31
2022-10-25T15:45:31.091Z,100455.03
2022-10-25T15:48:22.047Z,100461.39
2022-10-25T15:50:59.937Z,100466.17
2022-10-25T15:53:38.059Z,100469.39
2022-10-25T15:56:40.927Z,100473.30
2022-10-25T15:59:32.588Z,100472.27
2022-10-25T16:02:38.466Z,100469.27
2022-10-25T16:05:29.109Z,100477.45
2022-10-25T16:08:04.212Z,100478.77
2022-10-25T16:10:33.924Z,100488.96
2022-10-25T16:13:12.844Z,100494.13
2022-10-25T16:15:43.413Z,100497.81
2022-10-25T16:18:15.743Z,100501.60
2022-10-25T16:20:47.803Z,100503.78
2022-10-25T16:23:24.122Z,100515.27
2022-10-25T16:25:58.447Z,100516.35
2022-10-25T16:28:40.798Z,100516.77
2022-10-25T16:31:16.420Z,100516.14
2022-10-25T16:33:52.298Z,100514.46
2022-10-25T16:36:24.670Z,100514.79
2022-10-25T16:38:55.290Z,100519.45
2022-10-25T16:41:29.674Z,100524.54
2022-10-25T16:44:02.362Z,100525.19
2022-10-25T16:46:39.305Z,100515.85
2022-10-25T16:49:11.504Z,100515.38
2022-10-25T16:51:44.517Z,100517.76
2022-10-25T16:54:17.923Z,100520.17
2022-10-25T16:57:02.439Z,100517.58
2022-10-25T16:59:32.808Z,100520.77
2022-10-25T17:02:05.606Z,100519.12
2022-10-25T17:04:34.778Z,100517.33
2022-10-25T17:07:08.737Z,100523.08
2022-10-25T17:09:41.951Z,100528.66
2022-10-25T17:12:13.242Z,100527.30
2022-10-25T17:14:42.219Z,100526.60
2022-10-25T17:17:11.487Z,100529.55
2022-10-25T17:19:45.080Z,100527.48
2022-10-25T17:22:14.228Z,100528.88
2022-10-25T17:24:45.321Z,100528.00
2022-10-25T17:27:23.153Z,100533.23
2022-10-25T17:29:52.708Z,100539.76
2022-10-25T17:32:25.557Z,100542.03
2022-10-25T17:34:54.833Z,100546.05
2022-10-25T17:37:26.235Z,100549.05
2022-10-25T17:40:02.742Z,100552.06
2022-10-25T17:42:32.957Z,100553.86
2022-10-25T17:45:07.723Z,100554.39
2022-10-25T17:47:37.729Z,100558.11
2022-10-25T17:50:07.182Z,100561.77
2022-10-25T17:52:36.215Z,100559.02
2022-10-25T17:55:06.511Z,100562.17
2022-10-25T17:57:36.487Z,100569.70
2022-10-25T18:00:27.532Z,100568.04
2022-10-25T18:03:07.602Z,100564.70
2022-10-25T18:05:49.580Z,100564.27
2022-10-25T18:08:25.517Z,100566.95
2022-10-25T18:11:19.468Z,100568.52
2022-10-25T18:13:57.539Z,100570.11
2022-10-25T18:16:33.765Z,100569.15
2022-10-25T18:19:05.763Z,100571.98
2022-10-25T18:21:38.392Z,100570.30
2022-10-25T18:24:13.438Z,100569.58
2022-10-25T18:26:42.911Z,100567.23
2022-10-25T18:29:14.663Z,100567.23
2022-10-25T18:31:46.398Z,100565.60
2022-10-25T18:34:15.805Z,100568.38
2022-10-25T18:36:51.862Z,100569.85
2022-10-25T18:39:21.314Z,100567.90
2022-10-25T18:41:55.085Z,100569.25
2022-10-25T18:44:25.465Z,100571.52
2022-10-25T18:46:57.136Z,100565.95
2022-10-25T18:49:31.880Z,100562.71
2022-10-25T18:52:03.597Z,100563.55
2022-10-25T18:54:37.142Z,100563.92
2022-10-25T18:57:13.699Z,100562.87
2022-10-25T18:59:43.035Z,100562.95
2022-10-25T19:02:14.893Z,100564.81
2022-10-25T19:04:44.288Z,100567.38
2022-10-25T19:07:16.802Z,100565.40
2022-10-25T19:09:54.892Z,100566.69
2022-10-25T19:12:27.917Z,100565.43
2022-10-25T19:15:03.085Z,100568.98
2022-10-25T19:17:35.137Z,100571.68
2022-10-25T19:20:07.362Z,100574.90
2022-10-25T19:22:39.525Z,100578.01
2022-10-25T19:25:11.136Z,100579.88
2022-10-25T19:27:40.203Z,100577.05
2022-10-25T19:30:10.345Z,100582.23
2022-10-25T19:32:54.588Z,100586.25
2022-10-25T19:35:28.224Z,100587.39
2022-10-25T19:38:09.901Z,100592.71
2022-10-25T19:40:40.419Z,100592.27
2022-10-25T19:43:15.287Z,100591.11
2022-10-25T19:45:51.012Z,100590.48
2022-10-25T19:48:33.647Z,100598.35
2022-10-25T19:51:10.476Z,100594.83
2022-10-25T19:53:40.752Z,100593.48
2022-10-25T19:56:39.200Z,100594.25
2022-10-25T19:59:15.146Z,100595.21
2022-10-25T20:01:47.765Z,100598.40
2022-10-25T20:04:20.351Z,100600.17
2022-10-25T20:07:31.006Z,100597.47
2022-10-25T20:10:10.395Z,100601.86
2022-10-25T20:12:44.270Z,100606.43
2022-10-25T20:15:38.561Z,100606.56
2022-10-25T20:18:11.208Z,100602.13
2022-10-25T20:20:45.087Z,100607.48
2022-10-25T20:23:20.128Z,100609.22
2022-10-25T20:25:59.739Z,100612.42
2022-10-25T20:28:44.248Z,100615.98
2022-10-25T20:31:24.772Z,100617.27
2022-10-25T20:34:11.057Z,100620.21
2022-10-25T20:36:47.874Z,100618.39
2022-10-25T20:39:21.228Z,100622.95
2022-10-25T20:42:03.982Z,100623.96
2022-10-25T20:44:54.032Z,100626.73
2022-10-25T20:47:46.373Z,100629.56
2022-10-25T20:50:20.446Z,100627.29
2022-10-25T20:53:10.161Z,100627.78
2022-10-25T20:55:48.990Z,100625.77
2022-10-25T20:58:41.385Z,100627.23
2022-10-25T21:01:17.922Z,100625.30
2022-10-25T21:03:51.170Z,100623.85
2022-10-25T21:06:45.271Z,100626.16
2022-10-25T21:09:19.562Z,100630.66
2022-10-25T21:11:50.240Z,100633.42
2022-10-25T21:17:26.448Z,100633.93
2022-10-25T21:20:15.635Z,100633.96
2022-10-25T21:23:00.187Z,100632.21
2022-10-25T21:25:47.522Z,100636.58
2022-10-25T21:28:36.783Z,100636.86
2022-10-25T21:31:24.058Z,100636.84
2022-10-25T21:34:06.908Z,100641.48
2022-10-25T21:36:41.986Z,100640.27
2022-10-25T21:39:19.845Z,100639.48
2022-10-25T21:42:03.531Z,100636.90
2022-10-25T21:45:07.381Z,100634.86
2022-10-25T21:47:49.871Z,100641.00
2022-10-25T21:50:42.505Z,100644.33
2022-10-25T21:53:35.016Z,100645.59
2022-10-25T21:56:42.898Z,100648.36
2022-10-25T21:59:26.329Z,100648.60
2022-10-25T22:02:02.670Z,100646.85
2022-10-25T22:04:49.679Z,100648.33
2022-10-25T22:07:32.347Z,100646.66
2022-10-25T22:10:10.525Z,100647.02
2022-10-25T22:12:49.671Z,100640.84
2022-10-25T22:15:21.370Z,100642.92
2022-10-25T22:18:01.400Z,100639.13
2022-10-25T22:23:50.480Z,100636.59
2022-10-25T22:26:44.741Z,100641.02
2022-10-25T22:29:36.823Z,100647.83
2022-10-25T22:32:32.819Z,100645.19
2022-10-25T22:35:31.398Z,100648.73
2022-10-25T22:38:12.258Z,100648.27
2022-10-25T22:41:04.121Z,100643.48
2022-10-25T22:43:50.919Z,100642.62
2022-10-25T22:46:35.053Z,100645.68
2022-10-25T22:49:12.846Z,100657.92
2022-10-25T22:51:47.889Z,100658.52
2022-10-25T22:54:33.867Z,100657.02
2022-10-25T22:57:15.723Z,100664.83
2022-10-25T23:00:10.761Z,100667.45
2022-10-25T23:03:05.366Z,100663.80
2022-10-25T23:05:42.382Z,100661.50
2022-10-25T23:08:33.658Z,100661.45
2022-10-25T23:11:27.823Z,100665.09
2022-10-25T23:14:14.864Z,100659.98
2022-10-25T23:16:49.771Z,100661.84
2022-10-25T23:20:17.675Z,100663.02
2022-10-25T23:22:35.937Z,100664.38
2022-10-25T23:25:06.908Z,100664.25
2022-10-25T23:27:47.617Z,100666.63
2022-10-25T23:30:28.809Z,100669.67
2022-10-25T23:33:17.423Z,100670.59
2022-10-25T23:35:54.774Z,100668.38
2022-10-25T23:38:26.058Z,100666.31
2022-10-25T23:40:59.825Z,100670.73
2022-10-25T23:43:53.786Z,100666.84
2022-10-25T23:46:43.257Z,100669.42
2022-10-25T23:54:28.406Z,100676.84
2022-10-25T23:56:57.119Z,100681.73
2022-10-25T23:59:25.983Z,100683.70
